createdAt,value
2024-03-19T00:00:09.584Z,996.41
2024-03-19T00:00:37.846Z,996.51
2024-03-19T00:00:56.362Z,996.51
2024-03-19T00:01:27.583Z,996.51
2024-03-19T00:01:59.808Z,996.41
2024-03-19T00:02:32.018Z,996.41
2024-03-19T00:03:03.588Z,996.31
2024-03-19T00:03:35.607Z,996.31
2024-03-19T00:04:07.793Z,996.51
2024-03-19T00:04:36.887Z,996.41
2024-03-19T00:04:55.594Z,996.41
2024-03-19T00:05:28.601Z,996.41
2024-03-19T00:05:59.708Z,996.51
2024-03-19T00:06:31.989Z,996.51
2024-03-19T00:07:03.611Z,996.41
2024-03-19T00:07:35.896Z,996.41
2024-03-19T00:08:07.620Z,996.41
2024-03-19T00:08:36.748Z,996.51
2024-03-19T00:08:55.989Z,996.51
2024-03-19T00:09:27.722Z,996.51
2024-03-19T00:09:59.857Z,996.31
2024-03-19T00:10:32.661Z,996.31
2024-03-19T00:11:03.566Z,996.41
2024-03-19T00:11:36.457Z,996.41
2024-03-19T00:12:07.618Z,996.51
2024-03-19T00:12:36.899Z,996.41
2024-03-19T00:12:56.510Z,996.41
2024-03-19T00:13:27.677Z,996.41
2024-03-19T00:14:00.665Z,996.61
2024-03-19T00:14:32.095Z,996.61
2024-03-19T00:15:06.762Z,996.31
2024-03-19T00:15:35.731Z,996.31
2024-03-19T00:16:07.772Z,996.51
2024-03-19T00:16:36.675Z,996.31
2024-03-19T00:16:55.890Z,996.31
2024-03-19T00:17:27.795Z,996.31
2024-03-19T00:17:59.827Z,996.41
2024-03-19T00:18:31.804Z,996.41
2024-03-19T00:19:04.586Z,996.51
2024-03-19T00:19:36.141Z,996.51
2024-03-19T00:20:09.089Z,996.31
2024-03-19T00:20:36.801Z,996.31
2024-03-19T00:20:56.300Z,996.31
2024-03-19T00:21:28.296Z,996.31
2024-03-19T00:21:59.966Z,996.31
2024-03-19T00:22:32.485Z,996.31
2024-03-19T00:23:03.751Z,996.41
2024-03-19T00:23:36.916Z,996.41
2024-03-19T00:24:07.637Z,996.41
2024-03-19T00:24:36.673Z,996.41
2024-03-19T00:24:55.536Z,996.41
2024-03-19T00:25:28.626Z,996.41
2024-03-19T00:26:00.274Z,996.41
2024-03-19T00:26:32.141Z,996.41
2024-03-19T00:27:03.749Z,996.41
2024-03-19T00:27:35.680Z,996.41
2024-03-19T00:28:07.774Z,996.31
2024-03-19T00:28:36.687Z,996.41
2024-03-19T00:28:55.521Z,996.41
2024-03-19T00:29:27.635Z,996.41
2024-03-19T00:29:59.783Z,996.31
2024-03-19T00:30:33.295Z,996.31
2024-03-19T00:31:03.710Z,996.31
2024-03-19T00:31:35.655Z,996.31
2024-03-19T00:32:07.557Z,996.31
2024-03-19T00:32:37.325Z,996.41
2024-03-19T00:32:55.579Z,996.41
2024-03-19T00:33:27.577Z,996.41
2024-03-19T00:34:00.121Z,996.51
2024-03-19T00:34:32.073Z,996.51
2024-03-19T00:35:06.081Z,996.04
2024-03-19T00:35:35.548Z,996.04
2024-03-19T00:36:07.637Z,996.31
2024-03-19T00:36:36.869Z,996.31
2024-03-19T00:36:55.570Z,996.31
2024-03-19T00:37:27.664Z,996.31
2024-03-19T00:38:00.071Z,996.41
2024-03-19T00:38:33.179Z,996.41
2024-03-19T00:39:04.103Z,996.41
2024-03-19T00:39:36.122Z,996.41
2024-03-19T00:40:09.193Z,996.41
2024-03-19T00:40:36.795Z,996.24
2024-03-19T00:40:56.421Z,996.24
2024-03-19T00:41:27.679Z,996.24
2024-03-19T00:41:59.745Z,996.41
2024-03-19T00:42:31.861Z,996.41
2024-03-19T00:43:03.792Z,996.31
2024-03-19T00:43:35.554Z,996.31
2024-03-19T00:44:07.710Z,996.31
2024-03-19T00:44:36.846Z,996.24
2024-03-19T00:44:55.553Z,996.24
2024-03-19T00:45:29.303Z,996.24
2024-03-19T00:46:00.170Z,996.31
2024-03-19T00:46:32.062Z,996.31
2024-03-19T00:47:04.066Z,996.31
2024-03-19T00:47:35.631Z,996.31
2024-03-19T00:48:07.612Z,996.14
2024-03-19T00:48:36.704Z,996.24
2024-03-19T00:48:55.885Z,996.24
2024-03-19T00:49:27.798Z,996.24
2024-03-19T00:50:01.571Z,996.31
2024-03-19T00:50:32.076Z,996.31
2024-03-19T00:51:03.881Z,996.31
2024-03-19T00:51:35.822Z,996.31
2024-03-19T00:52:07.668Z,996.04
2024-03-19T00:52:36.737Z,996.24
2024-03-19T00:52:55.558Z,996.24
2024-03-19T00:53:27.771Z,996.24
2024-03-19T00:53:59.822Z,996.24
2024-03-19T00:54:31.965Z,996.24
2024-03-19T00:55:06.305Z,996.24
2024-03-19T00:55:35.588Z,996.24
2024-03-19T00:56:07.613Z,996.41
2024-03-19T00:56:37.122Z,996.31
2024-03-19T00:56:55.516Z,996.31
2024-03-19T00:57:28.376Z,996.31
2024-03-19T00:58:01.465Z,996.31
2024-03-19T00:58:32.278Z,996.31
2024-03-19T00:59:03.726Z,996.14
2024-03-19T00:59:36.171Z,996.14
2024-03-19T01:00:09.606Z,996.24
2024-03-19T01:00:36.802Z,996.24
2024-03-19T01:00:56.592Z,996.24
2024-03-19T01:01:27.580Z,996.24
2024-03-19T01:02:00.192Z,996.14
2024-03-19T01:02:32.000Z,996.14
2024-03-19T01:03:03.865Z,996.31
2024-03-19T01:03:35.902Z,996.31
2024-03-19T01:04:09.334Z,996.31
2024-03-19T01:04:56.351Z,996.24
2024-03-19T01:05:28.820Z,996.24
2024-03-19T01:06:00.414Z,996.24
2024-03-19T01:06:31.986Z,996.24
2024-03-19T01:07:03.657Z,996.31
2024-03-19T01:07:35.865Z,996.31
2024-03-19T01:08:07.785Z,996.04
2024-03-19T01:08:36.767Z,996.41
2024-03-19T01:08:55.643Z,996.41
2024-03-19T01:09:27.612Z,996.41
2024-03-19T01:09:59.830Z,996.14
2024-03-19T01:10:32.866Z,996.14
2024-03-19T01:11:03.689Z,996.24
2024-03-19T01:11:35.940Z,996.24
2024-03-19T01:12:23.763Z,996.31
2024-03-19T01:12:55.707Z,996.24
2024-03-19T01:13:27.666Z,996.24
2024-03-19T01:14:00.135Z,996.24
2024-03-19T01:14:31.857Z,996.24
2024-03-19T01:15:06.519Z,996.31
2024-03-19T01:15:42.318Z,996.24
2024-03-19T01:16:07.585Z,996.24
2024-03-19T01:16:36.849Z,996.31
2024-03-19T01:16:55.516Z,996.31
2024-03-19T01:17:29.321Z,996.31
2024-03-19T01:17:59.684Z,996.04
2024-03-19T01:18:31.874Z,996.04
2024-03-19T01:19:03.814Z,996.31
2024-03-19T01:19:35.544Z,996.31
2024-03-19T01:20:09.119Z,996.41
2024-03-19T01:20:36.826Z,996.14
2024-03-19T01:20:56.596Z,996.14
2024-03-19T01:21:27.857Z,996.14
2024-03-19T01:22:00.107Z,996.41
2024-03-19T01:22:32.160Z,996.41
2024-03-19T01:23:03.826Z,996.41
2024-03-19T01:23:36.872Z,996.41
2024-03-19T01:24:07.792Z,996.24
2024-03-19T01:24:37.649Z,996.31
2024-03-19T01:24:56.338Z,996.31
2024-03-19T01:25:28.654Z,996.31
2024-03-19T01:26:00.857Z,996.31
2024-03-19T01:26:32.112Z,996.31
2024-03-19T01:27:04.376Z,996.31
2024-03-19T01:27:35.939Z,996.31
2024-03-19T01:28:08.157Z,996.31
2024-03-19T01:28:36.897Z,996.41
2024-03-19T01:28:55.638Z,996.41
2024-03-19T01:29:27.669Z,996.41
2024-03-19T01:29:59.944Z,996.41
2024-03-19T01:30:33.197Z,996.41
2024-03-19T01:31:03.650Z,996.61
2024-03-19T01:31:35.613Z,996.61
2024-03-19T01:32:07.614Z,996.61
2024-03-19T01:32:36.977Z,996.41
2024-03-19T01:32:55.561Z,996.41
2024-03-19T01:33:27.912Z,996.41
2024-03-19T01:33:59.757Z,996.41
2024-03-19T01:34:31.997Z,996.41
2024-03-19T01:35:05.693Z,996.61
2024-03-19T01:35:35.599Z,996.61
2024-03-19T01:36:07.605Z,996.51
2024-03-19T01:36:37.870Z,996.41
2024-03-19T01:36:57.433Z,996.41
2024-03-19T01:37:27.723Z,996.41
2024-03-19T01:37:59.793Z,996.51
2024-03-19T01:38:31.944Z,996.51
2024-03-19T01:39:03.632Z,996.51
2024-03-19T01:39:35.639Z,996.51
2024-03-19T01:40:09.385Z,996.51
2024-03-19T01:40:36.884Z,996.41
2024-03-19T01:40:56.266Z,996.41
2024-03-19T01:41:27.520Z,996.41
2024-03-19T01:41:59.911Z,996.41
2024-03-19T01:42:31.848Z,996.41
2024-03-19T01:43:04.853Z,996.31
2024-03-19T01:43:35.807Z,996.31
2024-03-19T01:44:07.643Z,996.41
2024-03-19T01:44:37.443Z,996.41
2024-03-19T01:44:55.781Z,996.41
2024-03-19T01:45:28.939Z,996.41
2024-03-19T01:45:59.982Z,996.41
2024-03-19T01:46:31.939Z,996.41
2024-03-19T01:47:03.772Z,996.41
2024-03-19T01:47:35.612Z,996.41
2024-03-19T01:48:07.557Z,996.31
2024-03-19T01:48:36.770Z,996.31
2024-03-19T01:48:55.810Z,996.31
2024-03-19T01:49:27.935Z,996.31
2024-03-19T01:49:59.820Z,996.41
2024-03-19T01:50:32.639Z,996.41
2024-03-19T01:51:03.700Z,996.41
2024-03-19T01:51:35.694Z,996.41
2024-03-19T01:52:07.591Z,996.31
2024-03-19T01:52:36.765Z,996.61
2024-03-19T01:52:55.944Z,996.61
2024-03-19T01:53:27.689Z,996.61
2024-03-19T01:53:59.930Z,996.41
2024-03-19T01:54:32.529Z,996.41
2024-03-19T01:55:06.241Z,996.51
2024-03-19T01:55:36.710Z,996.51
2024-03-19T01:56:07.563Z,996.31
2024-03-19T01:56:37.452Z,996.31
2024-03-19T01:56:55.674Z,996.31
2024-03-19T01:57:27.600Z,996.31
2024-03-19T01:57:59.912Z,996.51
2024-03-19T01:58:32.114Z,996.51
2024-03-19T01:59:03.616Z,996.61
2024-03-19T01:59:36.505Z,996.61
2024-03-19T02:00:09.713Z,996.61
2024-03-19T02:00:36.887Z,996.51
2024-03-19T02:00:56.533Z,996.51
2024-03-19T02:01:27.702Z,996.51
2024-03-19T02:01:59.768Z,996.71
2024-03-19T02:02:32.958Z,996.71
2024-03-19T02:03:03.678Z,996.24
2024-03-19T02:03:35.615Z,996.24
2024-03-19T02:04:07.657Z,996.41
2024-03-19T02:04:36.812Z,996.31
2024-03-19T02:04:55.933Z,996.31
2024-03-19T02:05:29.265Z,996.31
2024-03-19T02:06:00.546Z,996.51
2024-03-19T02:06:32.033Z,996.51
2024-03-19T02:07:03.665Z,996.31
2024-03-19T02:07:36.579Z,996.31
2024-03-19T02:08:07.557Z,996.51
2024-03-19T02:08:37.145Z,996.51
2024-03-19T02:08:55.789Z,996.51
2024-03-19T02:09:27.813Z,996.51
2024-03-19T02:09:59.822Z,996.24
2024-03-19T02:10:32.875Z,996.24
2024-03-19T02:11:03.636Z,996.24
2024-03-19T02:11:35.630Z,996.24
2024-03-19T02:12:07.603Z,996.31
2024-03-19T02:12:36.941Z,996.31
2024-03-19T02:12:55.917Z,996.31
2024-03-19T02:13:28.312Z,996.31
2024-03-19T02:13:59.970Z,996.41
2024-03-19T02:14:32.054Z,996.41
2024-03-19T02:15:06.596Z,996.24
2024-03-19T02:15:36.024Z,996.24
2024-03-19T02:16:07.828Z,996.31
2024-03-19T02:16:36.888Z,996.41
2024-03-19T02:16:55.826Z,996.41
2024-03-19T02:17:27.798Z,996.41
2024-03-19T02:18:00.316Z,996.14
2024-03-19T02:18:31.963Z,996.14
2024-03-19T02:19:03.761Z,996.41
2024-03-19T02:19:35.708Z,996.41
2024-03-19T02:20:08.978Z,996.24
2024-03-19T02:20:36.752Z,996.51
2024-03-19T02:20:56.917Z,996.51
2024-03-19T02:21:27.765Z,996.51
2024-03-19T02:22:00.728Z,996.41
2024-03-19T02:22:31.986Z,996.41
2024-03-19T02:23:03.717Z,996.24
2024-03-19T02:23:35.748Z,996.24
2024-03-19T02:24:07.698Z,996.31
2024-03-19T02:24:36.910Z,996.14
2024-03-19T02:24:55.661Z,996.14
2024-03-19T02:25:28.613Z,996.14
2024-03-19T02:25:59.901Z,996.31
2024-03-19T02:26:32.158Z,996.31
2024-03-19T02:27:03.862Z,996.31
2024-03-19T02:27:35.711Z,996.31
2024-03-19T02:28:08.294Z,996.31
2024-03-19T02:28:36.911Z,996.31
2024-03-19T02:28:55.793Z,996.31
2024-03-19T02:29:27.885Z,996.31
2024-03-19T02:29:59.795Z,996.24
2024-03-19T02:30:33.320Z,996.24
2024-03-19T02:31:03.674Z,996.24
2024-03-19T02:31:36.437Z,996.24
2024-03-19T02:32:07.853Z,996.51
2024-03-19T02:32:36.801Z,996.24
2024-03-19T02:32:55.706Z,996.24
2024-03-19T02:33:28.807Z,996.24
2024-03-19T02:34:02.703Z,996.31
2024-03-19T02:34:32.571Z,996.31
2024-03-19T02:35:06.456Z,996.24
2024-03-19T02:35:35.846Z,996.24
2024-03-19T02:36:07.737Z,996.31
2024-03-19T02:36:37.111Z,996.24
2024-03-19T02:36:55.929Z,996.24
2024-03-19T02:37:27.899Z,996.24
2024-03-19T02:37:59.822Z,996.31
2024-03-19T02:38:32.307Z,996.31
2024-03-19T02:39:03.729Z,996.14
2024-03-19T02:39:35.817Z,996.14
2024-03-19T02:40:09.281Z,996.31
2024-03-19T02:40:37.045Z,996.24
2024-03-19T02:40:56.490Z,996.24
2024-03-19T02:41:28.678Z,996.24
2024-03-19T02:41:59.868Z,996.24
2024-03-19T02:42:32.401Z,996.24
2024-03-19T02:43:03.938Z,996.24
2024-03-19T02:43:35.961Z,996.24
2024-03-19T02:44:07.807Z,996.24
2024-03-19T02:44:36.768Z,996.04
2024-03-19T02:44:55.548Z,996.04
2024-03-19T02:45:29.019Z,996.04
2024-03-19T02:45:59.845Z,996.31
2024-03-19T02:46:32.049Z,996.31
2024-03-19T02:47:03.741Z,996.14
2024-03-19T02:47:36.230Z,996.14
2024-03-19T02:48:07.708Z,996.24
2024-03-19T02:48:37.482Z,996.31
2024-03-19T02:48:55.673Z,996.31
2024-03-19T02:49:27.757Z,996.31
2024-03-19T02:49:59.763Z,996.24
2024-03-19T02:50:33.237Z,996.24
2024-03-19T02:51:03.647Z,996.24
2024-03-19T02:51:35.727Z,996.24
2024-03-19T02:52:07.758Z,996.24
2024-03-19T02:52:36.919Z,996.24
2024-03-19T02:52:55.876Z,996.24
2024-03-19T02:53:27.978Z,996.24
2024-03-19T02:53:59.860Z,996.31
2024-03-19T02:54:32.308Z,996.31
2024-03-19T02:55:06.090Z,996.31
2024-03-19T02:55:35.910Z,996.31
2024-03-19T02:56:07.776Z,996.24
2024-03-19T02:56:36.810Z,996.41
2024-03-19T02:56:55.665Z,996.41
2024-03-19T02:57:27.668Z,996.41
2024-03-19T02:57:59.853Z,996.24
2024-03-19T02:58:32.110Z,996.24
2024-03-19T02:59:03.798Z,996.24
2024-03-19T02:59:36.501Z,996.24
2024-03-19T03:00:10.077Z,996.31
2024-03-19T03:00:37.012Z,996.31
2024-03-19T03:00:57.292Z,996.31
2024-03-19T03:01:28.001Z,996.31
2024-03-19T03:02:00.181Z,996.41
2024-03-19T03:02:32.047Z,996.41
2024-03-19T03:03:03.943Z,996.24
2024-03-19T03:03:35.871Z,996.24
2024-03-19T03:04:07.683Z,996.31
2024-03-19T03:04:36.980Z,996.51
2024-03-19T03:04:55.690Z,996.51
2024-03-19T03:05:28.957Z,996.51
2024-03-19T03:05:59.982Z,996.41
2024-03-19T03:06:32.466Z,996.41
2024-03-19T03:07:04.987Z,996.41
2024-03-19T03:07:35.754Z,996.41
2024-03-19T03:08:07.735Z,996.31
2024-03-19T03:08:36.846Z,996.24
2024-03-19T03:08:55.695Z,996.24
2024-03-19T03:09:27.702Z,996.24
2024-03-19T03:10:00.280Z,996.24
2024-03-19T03:10:32.807Z,996.24
2024-03-19T03:11:03.688Z,996.24
2024-03-19T03:11:35.698Z,996.24
2024-03-19T03:12:07.648Z,996.41
2024-03-19T03:12:37.012Z,996.41
2024-03-19T03:12:55.645Z,996.41
2024-03-19T03:13:27.997Z,996.41
2024-03-19T03:14:00.081Z,996.31
2024-03-19T03:14:32.073Z,996.31
2024-03-19T03:15:06.826Z,996.51
2024-03-19T03:15:36.365Z,996.51
2024-03-19T03:16:07.649Z,996.41
2024-03-19T03:16:37.249Z,996.41
2024-03-19T03:16:55.885Z,996.41
2024-03-19T03:17:27.908Z,996.41
2024-03-19T03:17:59.796Z,996.14
2024-03-19T03:18:32.268Z,996.14
2024-03-19T03:19:03.748Z,996.41
2024-03-19T03:19:35.784Z,996.41
2024-03-19T03:20:09.302Z,996.61
2024-03-19T03:20:39.899Z,996.41
2024-03-19T03:21:11.793Z,996.41
2024-03-19T03:21:37.118Z,996.51
2024-03-19T03:21:59.834Z,996.51
2024-03-19T03:22:32.077Z,996.51
2024-03-19T03:23:03.766Z,996.31
2024-03-19T03:23:36.076Z,996.31
2024-03-19T03:24:07.829Z,996.41
2024-03-19T03:24:36.763Z,996.51
2024-03-19T03:24:55.765Z,996.51
2024-03-19T03:25:29.553Z,996.51
2024-03-19T03:25:59.801Z,996.51
2024-03-19T03:26:32.133Z,996.51
2024-03-19T03:27:03.726Z,996.51
2024-03-19T03:27:35.763Z,996.51
2024-03-19T03:28:07.978Z,996.61
2024-03-19T03:28:36.799Z,996.51
2024-03-19T03:28:56.080Z,996.51
2024-03-19T03:29:28.185Z,996.51
2024-03-19T03:29:59.817Z,996.41
2024-03-19T03:30:33.786Z,996.41
2024-03-19T03:31:03.992Z,996.41
2024-03-19T03:31:36.228Z,996.41
2024-03-19T03:32:07.950Z,996.61
2024-03-19T03:32:36.893Z,996.51
2024-03-19T03:32:55.789Z,996.51
2024-03-19T03:33:27.667Z,996.51
2024-03-19T03:33:59.794Z,996.51
2024-03-19T03:34:31.998Z,996.51
2024-03-19T03:35:06.041Z,996.51
2024-03-19T03:35:35.760Z,996.51
2024-03-19T03:36:07.717Z,996.41
2024-03-19T03:36:36.932Z,996.51
2024-03-19T03:36:55.731Z,996.51
2024-03-19T03:37:27.659Z,996.51
2024-03-19T03:37:59.903Z,996.61
2024-03-19T03:38:32.092Z,996.61
2024-03-19T03:39:03.797Z,996.61
2024-03-19T03:39:35.833Z,996.61
2024-03-19T03:40:09.110Z,996.31
2024-03-19T03:40:36.835Z,996.31
2024-03-19T03:40:56.647Z,996.31
2024-03-19T03:41:28.515Z,996.31
2024-03-19T03:41:59.825Z,996.61
2024-03-19T03:42:33.056Z,996.61
2024-03-19T03:43:06.829Z,996.61
2024-03-19T03:43:35.664Z,996.61
2024-03-19T03:44:07.602Z,996.31
2024-03-19T03:44:36.888Z,996.51
2024-03-19T03:44:56.612Z,996.51
2024-03-19T03:45:29.355Z,996.51
2024-03-19T03:46:00.175Z,996.41
2024-03-19T03:46:32.165Z,996.41
2024-03-19T03:47:03.748Z,996.51
2024-03-19T03:47:35.807Z,996.51
2024-03-19T03:48:07.814Z,996.51
2024-03-19T03:48:36.836Z,996.41
2024-03-19T03:48:55.668Z,996.41
2024-03-19T03:49:27.743Z,996.41
2024-03-19T03:49:59.885Z,996.41
2024-03-19T03:50:32.806Z,996.41
2024-03-19T03:51:04.710Z,996.41
2024-03-19T03:51:35.871Z,996.41
2024-03-19T03:52:07.862Z,996.61
2024-03-19T03:52:36.812Z,996.41
2024-03-19T03:52:55.710Z,996.41
2024-03-19T03:53:27.877Z,996.41
2024-03-19T03:53:59.825Z,996.51
2024-03-19T03:54:31.904Z,996.51
2024-03-19T03:55:06.035Z,996.24
2024-03-19T03:55:36.418Z,996.24
2024-03-19T03:56:07.789Z,996.51
2024-03-19T03:56:36.974Z,996.24
2024-03-19T03:56:55.925Z,996.24
2024-03-19T03:57:27.881Z,996.24
2024-03-19T03:58:00.176Z,996.51
2024-03-19T03:58:32.191Z,996.51
2024-03-19T03:59:03.746Z,996.41
2024-03-19T03:59:36.408Z,996.41
2024-03-19T04:00:09.118Z,996.24
2024-03-19T04:00:36.906Z,996.41
2024-03-19T04:00:56.863Z,996.41
2024-03-19T04:01:27.917Z,996.41
2024-03-19T04:02:00.357Z,996.31
2024-03-19T04:02:32.010Z,996.31
2024-03-19T04:03:03.730Z,996.41
2024-03-19T04:03:36.522Z,996.41
2024-03-19T04:04:07.741Z,996.41
2024-03-19T04:04:36.882Z,996.41
2024-03-19T04:04:55.748Z,996.41
2024-03-19T04:05:28.644Z,996.41
2024-03-19T04:05:59.992Z,996.51
2024-03-19T04:06:32.536Z,996.51
2024-03-19T04:07:03.939Z,996.51
2024-03-19T04:07:35.796Z,996.51
2024-03-19T04:08:11.098Z,996.31
2024-03-19T04:08:36.851Z,996.31
2024-03-19T04:08:55.799Z,996.31
2024-03-19T04:09:27.668Z,996.31
2024-03-19T04:09:59.912Z,996.61
2024-03-19T04:10:33.939Z,996.61
2024-03-19T04:11:03.916Z,996.71
2024-03-19T04:11:35.834Z,996.71
2024-03-19T04:12:07.905Z,996.41
2024-03-19T04:12:37.668Z,996.51
2024-03-19T04:12:55.908Z,996.51
2024-03-19T04:13:27.783Z,996.51
2024-03-19T04:13:59.847Z,996.51
2024-03-19T04:14:32.557Z,996.51
2024-03-19T04:15:06.579Z,996.51
2024-03-19T04:15:35.847Z,996.51
2024-03-19T04:16:08.027Z,996.31
2024-03-19T04:16:36.864Z,996.61
2024-03-19T04:16:56.033Z,996.61
2024-03-19T04:17:29.826Z,996.61
2024-03-19T04:17:59.985Z,996.61
2024-03-19T04:18:32.314Z,996.61
2024-03-19T04:19:03.819Z,996.71
2024-03-19T04:19:36.337Z,996.71
2024-03-19T04:20:09.286Z,996.41
2024-03-19T04:20:36.864Z,996.61
2024-03-19T04:20:56.622Z,996.61
2024-03-19T04:21:27.872Z,996.61
2024-03-19T04:21:59.875Z,996.24
2024-03-19T04:22:32.321Z,996.24
2024-03-19T04:23:03.773Z,996.51
2024-03-19T04:23:35.837Z,996.51
2024-03-19T04:24:07.811Z,996.51
2024-03-19T04:24:36.918Z,996.51
2024-03-19T04:24:55.970Z,996.51
2024-03-19T04:25:28.720Z,996.51
2024-03-19T04:25:59.947Z,996.51
2024-03-19T04:26:32.010Z,996.51
2024-03-19T04:27:03.828Z,996.61
2024-03-19T04:27:36.120Z,996.61
2024-03-19T04:28:07.933Z,996.41
2024-03-19T04:28:36.874Z,996.61
2024-03-19T04:28:56.045Z,996.61
2024-03-19T04:29:28.040Z,996.61
2024-03-19T04:30:03.192Z,996.61
2024-03-19T04:30:32.197Z,996.61
2024-03-19T04:31:03.880Z,996.51
2024-03-19T04:31:35.778Z,996.51
2024-03-19T04:32:08.169Z,996.51
2024-03-19T04:32:37.298Z,996.51
2024-03-19T04:32:56.055Z,996.51
2024-03-19T04:33:27.795Z,996.51
2024-03-19T04:34:03.746Z,996.41
2024-03-19T04:34:32.228Z,996.41
2024-03-19T04:35:06.499Z,996.51
2024-03-19T04:35:35.989Z,996.51
2024-03-19T04:36:09.046Z,996.51
2024-03-19T04:36:36.832Z,996.41
2024-03-19T04:36:55.884Z,996.41
2024-03-19T04:37:27.846Z,996.41
2024-03-19T04:38:00.326Z,996.61
2024-03-19T04:38:32.005Z,996.61
2024-03-19T04:39:03.791Z,996.51
2024-03-19T04:39:35.785Z,996.51
2024-03-19T04:40:09.155Z,996.51
2024-03-19T04:40:36.953Z,996.51
2024-03-19T04:40:56.788Z,996.51
2024-03-19T04:41:28.049Z,996.51
2024-03-19T04:42:00.046Z,996.71
2024-03-19T04:42:32.014Z,996.71
2024-03-19T04:43:03.905Z,996.41
2024-03-19T04:43:36.173Z,996.41
2024-03-19T04:44:08.758Z,996.61
2024-03-19T04:44:37.014Z,996.41
2024-03-19T04:44:55.918Z,996.41
2024-03-19T04:45:29.051Z,996.41
2024-03-19T04:45:59.930Z,996.41
2024-03-19T04:46:32.284Z,996.41
2024-03-19T04:47:03.859Z,996.41
2024-03-19T04:47:36.222Z,996.41
2024-03-19T04:48:08.134Z,996.51
2024-03-19T04:48:37.056Z,996.61
2024-03-19T04:48:56.179Z,996.61
2024-03-19T04:49:28.950Z,996.61
2024-03-19T04:50:00.268Z,996.61
2024-03-19T04:50:33.106Z,996.61
2024-03-19T04:51:03.918Z,996.31
2024-03-19T04:51:36.013Z,996.31
2024-03-19T04:52:10.576Z,996.61
2024-03-19T04:52:36.886Z,996.61
2024-03-19T04:52:55.920Z,996.61
2024-03-19T04:53:27.881Z,996.61
2024-03-19T04:54:00.098Z,996.41
2024-03-19T04:54:32.058Z,996.41
2024-03-19T04:55:06.385Z,996.51
2024-03-19T04:55:36.995Z,996.51
2024-03-19T04:56:07.872Z,996.51
2024-03-19T04:56:37.894Z,996.41
2024-03-19T04:56:55.911Z,996.41
2024-03-19T04:57:27.804Z,996.41
2024-03-19T04:58:00.088Z,996.51
2024-03-19T04:58:32.449Z,996.51
2024-03-19T04:59:04.395Z,996.41
2024-03-19T04:59:35.954Z,996.41
2024-03-19T05:00:11.571Z,996.61
2024-03-19T05:00:36.957Z,996.61
2024-03-19T05:00:57.083Z,996.61
2024-03-19T05:01:27.819Z,996.61
2024-03-19T05:02:01.447Z,996.51
2024-03-19T05:02:32.618Z,996.51
2024-03-19T05:03:03.832Z,996.51
2024-03-19T05:03:35.931Z,996.51
2024-03-19T05:04:07.817Z,996.51
2024-03-19T05:04:36.831Z,996.51
2024-03-19T05:04:56.097Z,996.51
2024-03-19T05:05:28.762Z,996.51
2024-03-19T05:05:59.947Z,996.41
2024-03-19T05:06:32.148Z,996.41
2024-03-19T05:07:03.847Z,996.61
2024-03-19T05:07:35.791Z,996.61
2024-03-19T05:08:07.935Z,996.41
2024-03-19T05:08:36.835Z,996.51
2024-03-19T05:08:56.338Z,996.51
2024-03-19T05:09:27.797Z,996.51
2024-03-19T05:09:59.937Z,996.41
2024-03-19T05:10:33.020Z,996.41
2024-03-19T05:11:04.070Z,996.31
2024-03-19T05:11:36.437Z,996.31
2024-03-19T05:12:08.436Z,996.51
2024-03-19T05:12:37.000Z,996.61
2024-03-19T05:12:55.865Z,996.61
2024-03-19T05:13:27.943Z,996.61
2024-03-19T05:14:00.586Z,996.82
2024-03-19T05:14:32.245Z,996.82
2024-03-19T05:15:07.952Z,996.71
2024-03-19T05:15:36.103Z,996.71
2024-03-19T05:16:08.000Z,996.51
2024-03-19T05:16:37.469Z,996.71
2024-03-19T05:16:56.034Z,996.71
2024-03-19T05:17:28.073Z,996.71
2024-03-19T05:18:00.101Z,996.61
2024-03-19T05:18:32.302Z,996.61
2024-03-19T05:19:04.038Z,996.82
2024-03-19T05:19:36.750Z,996.82
2024-03-19T05:20:09.634Z,996.82
2024-03-19T05:20:37.016Z,996.71
2024-03-19T05:20:57.042Z,996.71
2024-03-19T05:21:28.320Z,996.71
2024-03-19T05:22:00.569Z,996.51
2024-03-19T05:22:32.423Z,996.51
2024-03-19T05:23:04.289Z,996.82
2024-03-19T05:23:37.169Z,996.82
2024-03-19T05:24:08.313Z,997.02
2024-03-19T05:24:37.016Z,996.71
2024-03-19T05:24:56.089Z,996.71
2024-03-19T05:25:29.164Z,996.71
2024-03-19T05:26:00.474Z,996.61
2024-03-19T05:26:32.437Z,996.61
2024-03-19T05:27:04.018Z,996.61
2024-03-19T05:27:36.359Z,996.61
2024-03-19T05:28:08.073Z,996.92
2024-03-19T05:28:37.216Z,996.92
2024-03-19T05:28:55.942Z,996.92
2024-03-19T05:29:28.299Z,996.92
2024-03-19T05:30:00.159Z,996.82
2024-03-19T05:30:33.424Z,996.82
2024-03-19T05:31:04.187Z,997.02
2024-03-19T05:31:35.969Z,997.02
2024-03-19T05:32:08.190Z,996.82
2024-03-19T05:32:37.068Z,996.92
2024-03-19T05:32:55.981Z,996.92
2024-03-19T05:33:29.198Z,996.92
2024-03-19T05:34:00.225Z,996.82
2024-03-19T05:34:32.773Z,996.82
2024-03-19T05:35:06.486Z,996.82
2024-03-19T05:35:36.749Z,996.82
2024-03-19T05:36:08.233Z,996.92
2024-03-19T05:36:37.200Z,997.12
2024-03-19T05:36:56.011Z,997.12
2024-03-19T05:37:27.951Z,997.12
2024-03-19T05:38:00.047Z,996.92
2024-03-19T05:38:32.312Z,996.92
2024-03-19T05:39:03.998Z,996.92
2024-03-19T05:39:36.673Z,996.92
2024-03-19T05:40:09.618Z,996.92
2024-03-19T05:40:37.618Z,997.02
2024-03-19T05:40:56.821Z,997.02
2024-03-19T05:41:27.973Z,997.02
2024-03-19T05:42:00.221Z,997.02
2024-03-19T05:42:32.530Z,997.02
2024-03-19T05:43:04.231Z,996.92
2024-03-19T05:43:36.148Z,996.92
2024-03-19T05:44:08.236Z,996.92
2024-03-19T05:44:37.102Z,996.82
2024-03-19T05:44:56.415Z,996.82
2024-03-19T05:45:29.421Z,996.82
2024-03-19T05:46:00.765Z,996.82
2024-03-19T05:46:32.408Z,996.82
2024-03-19T05:47:04.395Z,996.71
2024-03-19T05:47:36.180Z,996.71
2024-03-19T05:48:08.293Z,996.82
2024-03-19T05:48:38.174Z,996.82
2024-03-19T05:48:56.225Z,996.82
2024-03-19T05:49:28.682Z,996.82
2024-03-19T05:50:01.694Z,997.02
2024-03-19T05:50:32.489Z,997.02
2024-03-19T05:51:04.439Z,997.02
2024-03-19T05:51:36.951Z,997.02
2024-03-19T05:52:08.412Z,996.71
2024-03-19T05:52:36.957Z,996.71
2024-03-19T05:52:56.109Z,996.71
2024-03-19T05:53:28.107Z,996.71
2024-03-19T05:54:00.890Z,997.02
2024-03-19T05:54:32.258Z,997.02
2024-03-19T05:55:06.234Z,996.92
2024-03-19T05:55:36.045Z,996.92
2024-03-19T05:56:08.132Z,997.12
2024-03-19T05:56:37.139Z,996.92
2024-03-19T05:56:56.180Z,996.92
2024-03-19T05:57:27.890Z,996.92
2024-03-19T05:58:00.198Z,997.02
2024-03-19T05:58:32.508Z,997.02
2024-03-19T05:59:04.041Z,997.02
2024-03-19T05:59:36.306Z,997.02
2024-03-19T06:00:11.335Z,997.02
2024-03-19T06:00:37.162Z,996.82
2024-03-19T06:00:57.029Z,996.82
2024-03-19T06:01:28.046Z,996.82
2024-03-19T06:02:00.134Z,996.71
2024-03-19T06:02:32.395Z,996.71
2024-03-19T06:03:04.069Z,996.82
2024-03-19T06:03:36.359Z,996.82
2024-03-19T06:04:08.169Z,996.82
2024-03-19T06:04:37.646Z,997.02
2024-03-19T06:04:56.045Z,997.02
2024-03-19T06:05:29.087Z,997.02
2024-03-19T06:06:00.144Z,997.02
2024-03-19T06:06:32.330Z,997.02
2024-03-19T06:07:04.125Z,997.12
2024-03-19T06:07:36.905Z,997.12
2024-03-19T06:08:08.205Z,996.92
2024-03-19T06:08:37.093Z,997.02
2024-03-19T06:08:56.389Z,997.02
2024-03-19T06:09:28.027Z,997.02
2024-03-19T06:10:00.238Z,997.12
2024-03-19T06:10:33.132Z,997.12
2024-03-19T06:11:04.134Z,997.12
2024-03-19T06:11:36.138Z,997.12
2024-03-19T06:12:08.167Z,997.12
2024-03-19T06:12:36.955Z,996.71
2024-03-19T06:12:56.055Z,996.71
2024-03-19T06:13:28.741Z,996.71
2024-03-19T06:14:00.127Z,997.02
2024-03-19T06:14:32.316Z,997.02
2024-03-19T06:15:06.655Z,996.71